sensor_id;sensor_type;location;lat;lon;timestamp;P1;durP1;ratioP1;P2;durP2;ratioP2
24873;SDS011;12945;42.648;23.370;2023-08-07T00:00:44;5.03;;;1.73;;
24873;SDS011;12945;42.648;23.370;2023-08-07T00:03:10;2.05;;;1.85;;
24873;SDS011;12945;42.648;23.370;2023-08-07T00:05:38;2.97;;;1.80;;
24873;SDS011;12945;42.648;23.370;2023-08-07T00:08:03;5.05;;;2.00;;
24873;SDS011;12945;42.648;23.370;2023-08-07T00:10:30;2.38;;;1.70;;
24873;SDS011;12945;42.648;23.370;2023-08-07T00:12:56;1.92;;;1.70;;
24873;SDS011;12945;42.648;23.370;2023-08-07T00:15:37;3.42;;;1.80;;
24873;SDS011;12945;42.648;23.370;2023-08-07T00:18:02;2.58;;;2.00;;
24873;SDS011;12945;42.648;23.370;2023-08-07T00:20:29;2.88;;;1.77;;
24873;SDS011;12945;42.648;23.370;2023-08-07T00:22:54;3.78;;;2.00;;
24873;SDS011;12945;42.648;23.370;2023-08-07T00:25:27;2.35;;;1.92;;
24873;SDS011;12945;42.648;23.370;2023-08-07T00:27:53;2.05;;;1.65;;
24873;SDS011;12945;42.648;23.370;2023-08-07T00:30:18;3.17;;;2.17;;
24873;SDS011;12945;42.648;23.370;2023-08-07T00:32:43;2.10;;;1.70;;
24873;SDS011;12945;42.648;23.370;2023-08-07T00:35:20;2.22;;;1.95;;
24873;SDS011;12945;42.648;23.370;2023-08-07T00:37:45;2.58;;;2.15;;
24873;SDS011;12945;42.648;23.370;2023-08-07T00:40:18;2.35;;;2.10;;
24873;SDS011;12945;42.648;23.370;2023-08-07T00:42:43;1.92;;;1.70;;
24873;SDS011;12945;42.648;23.370;2023-08-07T00:45:09;2.10;;;1.90;;
24873;SDS011;12945;42.648;23.370;2023-08-07T00:47:34;2.20;;;2.00;;
24873;SDS011;12945;42.648;23.370;2023-08-07T00:50:00;2.72;;;2.10;;
24873;SDS011;12945;42.648;23.370;2023-08-07T00:52:25;2.80;;;2.25;;
24873;SDS011;12945;42.648;23.370;2023-08-07T00:54:55;2.90;;;2.13;;
24873;SDS011;12945;42.648;23.370;2023-08-07T00:57:20;2.87;;;2.10;;
24873;SDS011;12945;42.648;23.370;2023-08-07T00:59:48;2.55;;;2.35;;
24873;SDS011;12945;42.648;23.370;2023-08-07T01:02:14;2.88;;;2.10;;
24873;SDS011;12945;42.648;23.370;2023-08-07T01:04:40;3.03;;;2.30;;
24873;SDS011;12945;42.648;23.370;2023-08-07T01:09:33;4.18;;;2.40;;
24873;SDS011;12945;42.648;23.370;2023-08-07T01:12:03;3.50;;;2.60;;
24873;SDS011;12945;42.648;23.370;2023-08-07T01:14:36;3.33;;;2.63;;
24873;SDS011;12945;42.648;23.370;2023-08-07T01:22:29;4.47;;;2.75;;
24873;SDS011;12945;42.648;23.370;2023-08-07T01:25:04;4.22;;;2.75;;
24873;SDS011;12945;42.648;23.370;2023-08-07T01:27:35;3.20;;;2.85;;
24873;SDS011;12945;42.648;23.370;2023-08-07T01:32:47;3.92;;;3.05;;
24873;SDS011;12945;42.648;23.370;2023-08-07T01:37:51;5.55;;;3.33;;
24873;SDS011;12945;42.648;23.370;2023-08-07T01:42:46;3.63;;;3.03;;
24873;SDS011;12945;42.648;23.370;2023-08-07T01:45:22;3.92;;;3.47;;
24873;SDS011;12945;42.648;23.370;2023-08-07T01:47:47;3.90;;;3.50;;
24873;SDS011;12945;42.648;23.370;2023-08-07T01:53:02;4.07;;;3.67;;
24873;SDS011;12945;42.648;23.370;2023-08-07T01:55:30;5.10;;;3.20;;
24873;SDS011;12945;42.648;23.370;2023-08-07T01:57:56;5.18;;;3.22;;
24873;SDS011;12945;42.648;23.370;2023-08-07T02:00:23;4.70;;;3.20;;
24873;SDS011;12945;42.648;23.370;2023-08-07T02:02:48;3.97;;;3.50;;
24873;SDS011;12945;42.648;23.370;2023-08-07T02:05:19;5.03;;;3.65;;
24873;SDS011;12945;42.648;23.370;2023-08-07T02:07:44;5.32;;;3.88;;
24873;SDS011;12945;42.648;23.370;2023-08-07T02:10:12;4.80;;;4.07;;
24873;SDS011;12945;42.648;23.370;2023-08-07T02:12:37;4.35;;;3.42;;
24873;SDS011;12945;42.648;23.370;2023-08-07T02:15:21;4.28;;;3.72;;
24873;SDS011;12945;42.648;23.370;2023-08-07T02:17:46;7.60;;;3.47;;
24873;SDS011;12945;42.648;23.370;2023-08-07T02:20:13;4.63;;;3.60;;
24873;SDS011;12945;42.648;23.370;2023-08-07T02:22:39;6.18;;;4.03;;
24873;SDS011;12945;42.648;23.370;2023-08-07T02:25:17;4.25;;;3.85;;
24873;SDS011;12945;42.648;23.370;2023-08-07T02:27:43;4.65;;;4.00;;
24873;SDS011;12945;42.648;23.370;2023-08-07T02:30:25;6.03;;;3.92;;
24873;SDS011;12945;42.648;23.370;2023-08-07T02:32:50;5.53;;;3.50;;
24873;SDS011;12945;42.648;23.370;2023-08-07T02:35:27;6.53;;;3.67;;
24873;SDS011;12945;42.648;23.370;2023-08-07T02:37:52;3.92;;;3.53;;
24873;SDS011;12945;42.648;23.370;2023-08-07T02:43:02;4.70;;;4.18;;
24873;SDS011;12945;42.648;23.370;2023-08-07T02:45:41;3.70;;;3.38;;
24873;SDS011;12945;42.648;23.370;2023-08-07T02:48:06;5.20;;;4.10;;
24873;SDS011;12945;42.648;23.370;2023-08-07T02:50:32;4.93;;;4.20;;
24873;SDS011;12945;42.648;23.370;2023-08-07T02:53:00;6.25;;;4.53;;
24873;SDS011;12945;42.648;23.370;2023-08-07T02:55:34;4.78;;;3.63;;
24873;SDS011;12945;42.648;23.370;2023-08-07T02:57:59;4.30;;;3.90;;
24873;SDS011;12945;42.648;23.370;2023-08-07T03:00:42;4.68;;;4.07;;
24873;SDS011;12945;42.648;23.370;2023-08-07T03:03:08;5.28;;;4.22;;
24873;SDS011;12945;42.648;23.370;2023-08-07T03:05:34;6.32;;;4.10;;
24873;SDS011;12945;42.648;23.370;2023-08-07T03:08:00;4.18;;;3.78;;
24873;SDS011;12945;42.648;23.370;2023-08-07T03:13:10;5.72;;;3.80;;
24873;SDS011;12945;42.648;23.370;2023-08-07T03:18:39;5.50;;;4.32;;
24873;SDS011;12945;42.648;23.370;2023-08-07T03:23:33;6.20;;;3.90;;
24873;SDS011;12945;42.648;23.370;2023-08-07T03:26:15;4.90;;;4.40;;
24873;SDS011;12945;42.648;23.370;2023-08-07T03:28:41;6.38;;;4.55;;
24873;SDS011;12945;42.648;23.370;2023-08-07T03:31:21;8.00;;;5.07;;
24873;SDS011;12945;42.648;23.370;2023-08-07T03:33:46;4.53;;;4.07;;
24873;SDS011;12945;42.648;23.370;2023-08-07T03:39:03;5.20;;;4.03;;
24873;SDS011;12945;42.648;23.370;2023-08-07T03:41:33;5.10;;;4.10;;
24873;SDS011;12945;42.648;23.370;2023-08-07T03:43:58;4.57;;;4.15;;
24873;SDS011;12945;42.648;23.370;2023-08-07T03:46:31;5.25;;;4.05;;
24873;SDS011;12945;42.648;23.370;2023-08-07T03:48:57;8.52;;;4.15;;
24873;SDS011;12945;42.648;23.370;2023-08-07T03:51:30;4.25;;;3.85;;
24873;SDS011;12945;42.648;23.370;2023-08-07T03:53:57;4.45;;;4.00;;
24873;SDS011;12945;42.648;23.370;2023-08-07T03:56:22;5.07;;;4.25;;
24873;SDS011;12945;42.648;23.370;2023-08-07T03:58:47;4.63;;;4.07;;
24873;SDS011;12945;42.648;23.370;2023-08-07T04:01:21;5.53;;;4.28;;
24873;SDS011;12945;42.648;23.370;2023-08-07T04:03:46;8.20;;;4.50;;
24873;SDS011;12945;42.648;23.370;2023-08-07T04:06:14;4.30;;;3.55;;
24873;SDS011;12945;42.648;23.370;2023-08-07T04:08:41;6.97;;;4.10;;
24873;SDS011;12945;42.648;23.370;2023-08-07T04:13:35;5.93;;;4.15;;
24873;SDS011;12945;42.648;23.370;2023-08-07T04:16:12;5.10;;;4.03;;
24873;SDS011;12945;42.648;23.370;2023-08-07T04:18:37;4.10;;;3.70;;
24873;SDS011;12945;42.648;23.370;2023-08-07T04:23:51;4.63;;;3.47;;
24873;SDS011;12945;42.648;23.370;2023-08-07T04:26:18;3.75;;;3.40;;
24873;SDS011;12945;42.648;23.370;2023-08-07T04:28:44;3.95;;;3.55;;
24873;SDS011;12945;42.648;23.370;2023-08-07T04:33:58;6.60;;;3.60;;
24873;SDS011;12945;42.648;23.370;2023-08-07T04:36:24;4.13;;;3.20;;
24873;SDS011;12945;42.648;23.370;2023-08-07T04:38:50;6.30;;;3.40;;
24873;SDS011;12945;42.648;23.370;2023-08-07T04:44:20;4.47;;;3.28;;
24873;SDS011;12945;42.648;23.370;2023-08-07T04:46:53;4.50;;;3.45;;
24873;SDS011;12945;42.648;23.370;2023-08-07T04:49:19;4.32;;;3.65;;
24873;SDS011;12945;42.648;23.370;2023-08-07T04:51:52;4.40;;;3.17;;
24873;SDS011;12945;42.648;23.370;2023-08-07T04:54:17;4.72;;;4.22;;
24873;SDS011;12945;42.648;23.370;2023-08-07T04:56:42;3.92;;;3.53;;
24873;SDS011;12945;42.648;23.370;2023-08-07T04:59:09;3.53;;;3.22;;
24873;SDS011;12945;42.648;23.370;2023-08-07T05:01:35;4.18;;;3.13;;
24873;SDS011;12945;42.648;23.370;2023-08-07T05:04:01;5.18;;;3.00;;
24873;SDS011;12945;42.648;23.370;2023-08-07T05:08:56;5.35;;;3.63;;
24873;SDS011;12945;42.648;23.370;2023-08-07T05:11:33;5.50;;;3.17;;
24873;SDS011;12945;42.648;23.370;2023-08-07T05:13:58;6.97;;;3.38;;
24873;SDS011;12945;42.648;23.370;2023-08-07T05:16:32;5.28;;;3.30;;
24873;SDS011;12945;42.648;23.370;2023-08-07T05:18:57;3.50;;;3.20;;
24873;SDS011;12945;42.648;23.370;2023-08-07T05:21:33;3.75;;;3.22;;
24873;SDS011;12945;42.648;23.370;2023-08-07T05:23:58;6.40;;;3.25;;
24873;SDS011;12945;42.648;23.370;2023-08-07T05:26:24;4.50;;;3.08;;
24873;SDS011;12945;42.648;23.370;2023-08-07T05:28:50;5.18;;;2.42;;
24873;SDS011;12945;42.648;23.370;2023-08-07T05:31:16;4.63;;;2.90;;
24873;SDS011;12945;42.648;23.370;2023-08-07T05:33:41;3.42;;;2.80;;
24873;SDS011;12945;42.648;23.370;2023-08-07T05:38:53;8.77;;;4.38;;
24873;SDS011;12945;42.648;23.370;2023-08-07T05:43:53;4.78;;;2.92;;
24873;SDS011;12945;42.648;23.370;2023-08-07T05:49:03;4.82;;;3.00;;
24873;SDS011;12945;42.648;23.370;2023-08-07T05:51:30;3.17;;;2.58;;
24873;SDS011;12945;42.648;23.370;2023-08-07T05:53:55;3.58;;;2.90;;
24873;SDS011;12945;42.648;23.370;2023-08-07T05:56:21;4.35;;;3.10;;
24873;SDS011;12945;42.648;23.370;2023-08-07T05:58:46;3.60;;;2.47;;
24873;SDS011;12945;42.648;23.370;2023-08-07T06:04:14;2.78;;;2.47;;
24873;SDS011;12945;42.648;23.370;2023-08-07T06:09:16;3.55;;;2.50;;
24873;SDS011;12945;42.648;23.370;2023-08-07T06:11:49;4.60;;;2.38;;
24873;SDS011;12945;42.648;23.370;2023-08-07T06:14:14;6.60;;;2.35;;
24873;SDS011;12945;42.648;23.370;2023-08-07T06:19:26;7.28;;;3.03;;
24873;SDS011;12945;42.648;23.370;2023-08-07T06:24:38;5.20;;;2.80;;
24873;SDS011;12945;42.648;23.370;2023-08-07T06:27:11;2.78;;;2.33;;
24873;SDS011;12945;42.648;23.370;2023-08-07T06:29:36;4.40;;;2.40;;
24873;SDS011;12945;42.648;23.370;2023-08-07T06:34:31;5.30;;;2.15;;
24873;SDS011;12945;42.648;23.370;2023-08-07T06:37:06;5.45;;;2.25;;
24873;SDS011;12945;42.648;23.370;2023-08-07T06:39:31;3.40;;;1.95;;
24873;SDS011;12945;42.648;23.370;2023-08-07T06:41:58;3.08;;;2.50;;
24873;SDS011;12945;42.648;23.370;2023-08-07T06:44:25;2.17;;;1.80;;
24873;SDS011;12945;42.648;23.370;2023-08-07T06:46:52;6.45;;;2.00;;
24873;SDS011;12945;42.648;23.370;2023-08-07T06:49:17;2.33;;;1.75;;
24873;SDS011;12945;42.648;23.370;2023-08-07T06:56:38;2.20;;;1.30;;
24873;SDS011;12945;42.648;23.370;2023-08-07T06:59:05;1.50;;;1.13;;
24873;SDS011;12945;42.648;23.370;2023-08-07T07:01:48;3.47;;;1.30;;
24873;SDS011;12945;42.648;23.370;2023-08-07T07:04:13;3.13;;;1.70;;
24873;SDS011;12945;42.648;23.370;2023-08-07T07:06:47;4.72;;;1.73;;
24873;SDS011;12945;42.648;23.370;2023-08-07T07:09:12;4.75;;;1.80;;
24873;SDS011;12945;42.648;23.370;2023-08-07T07:11:48;2.88;;;1.58;;
24873;SDS011;12945;42.648;23.370;2023-08-07T07:14:14;1.73;;;1.30;;
24873;SDS011;12945;42.648;23.370;2023-08-07T07:16:39;3.97;;;1.67;;
24873;SDS011;12945;42.648;23.370;2023-08-07T07:19:07;4.90;;;1.48;;
24873;SDS011;12945;42.648;23.370;2023-08-07T07:21:37;2.25;;;1.60;;
24873;SDS011;12945;42.648;23.370;2023-08-07T07:24:02;3.42;;;1.20;;
24873;SDS011;12945;42.648;23.370;2023-08-07T07:26:29;1.88;;;1.33;;
24873;SDS011;12945;42.648;23.370;2023-08-07T07:28:55;3.83;;;1.50;;
24873;SDS011;12945;42.648;23.370;2023-08-07T07:34:16;4.53;;;1.40;;
24873;SDS011;12945;42.648;23.370;2023-08-07T07:36:41;1.70;;;1.20;;
24873;SDS011;12945;42.648;23.370;2023-08-07T07:39:06;2.08;;;1.80;;
24873;SDS011;12945;42.648;23.370;2023-08-07T07:41:33;1.98;;;1.60;;
24873;SDS011;12945;42.648;23.370;2023-08-07T07:43:59;2.00;;;1.40;;
24873;SDS011;12945;42.648;23.370;2023-08-07T07:46:32;4.30;;;1.58;;
24873;SDS011;12945;42.648;23.370;2023-08-07T07:48:58;1.60;;;1.50;;
24873;SDS011;12945;42.648;23.370;2023-08-07T07:51:31;2.08;;;1.70;;
24873;SDS011;12945;42.648;23.370;2023-08-07T07:53:57;2.28;;;1.52;;
24873;SDS011;12945;42.648;23.370;2023-08-07T07:56:22;3.35;;;1.90;;
24873;SDS011;12945;42.648;23.370;2023-08-07T07:58:48;2.83;;;1.55;;
24873;SDS011;12945;42.648;23.370;2023-08-07T08:03:56;3.67;;;1.63;;
24873;SDS011;12945;42.648;23.370;2023-08-07T08:06:39;4.70;;;1.40;;
24873;SDS011;12945;42.648;23.370;2023-08-07T08:09:04;4.72;;;1.98;;
24873;SDS011;12945;42.648;23.370;2023-08-07T08:11:38;2.13;;;1.65;;
24873;SDS011;12945;42.648;23.370;2023-08-07T08:14:03;4.95;;;1.70;;
24873;SDS011;12945;42.648;23.370;2023-08-07T08:16:30;3.47;;;1.73;;
24873;SDS011;12945;42.648;23.370;2023-08-07T08:18:56;2.72;;;1.60;;
24873;SDS011;12945;42.648;23.370;2023-08-07T08:21:34;2.55;;;1.70;;
24873;SDS011;12945;42.648;23.370;2023-08-07T08:24:00;1.80;;;1.50;;
24873;SDS011;12945;42.648;23.370;2023-08-07T08:28:56;5.28;;;2.28;;
24873;SDS011;12945;42.648;23.370;2023-08-07T08:31:22;2.40;;;1.92;;
24873;SDS011;12945;42.648;23.370;2023-08-07T08:33:49;2.00;;;1.45;;
24873;SDS011;12945;42.648;23.370;2023-08-07T08:36:14;1.67;;;1.52;;
24873;SDS011;12945;42.648;23.370;2023-08-07T08:38:41;3.83;;;1.70;;
24873;SDS011;12945;42.648;23.370;2023-08-07T08:41:07;5.20;;;1.63;;
24873;SDS011;12945;42.648;23.370;2023-08-07T08:43:36;2.75;;;1.80;;
24873;SDS011;12945;42.648;23.370;2023-08-07T08:46:03;2.03;;;1.70;;
24873;SDS011;12945;42.648;23.370;2023-08-07T08:51:27;2.65;;;1.90;;
24873;SDS011;12945;42.648;23.370;2023-08-07T08:53:52;2.78;;;1.50;;
24873;SDS011;12945;42.648;23.370;2023-08-07T08:56:19;3.17;;;1.60;;
24873;SDS011;12945;42.648;23.370;2023-08-07T08:58:57;4.75;;;1.83;;
24873;SDS011;12945;42.648;23.370;2023-08-07T09:01:24;4.00;;;1.70;;
24873;SDS011;12945;42.648;23.370;2023-08-07T09:03:49;2.25;;;1.67;;
24873;SDS011;12945;42.648;23.370;2023-08-07T09:06:14;4.40;;;1.70;;
24873;SDS011;12945;42.648;23.370;2023-08-07T09:08:44;4.20;;;2.10;;
24873;SDS011;12945;42.648;23.370;2023-08-07T09:11:10;2.83;;;1.30;;
24873;SDS011;12945;42.648;23.370;2023-08-07T09:19:31;4.15;;;1.55;;
24873;SDS011;12945;42.648;23.370;2023-08-07T09:22:15;3.17;;;1.90;;
24873;SDS011;12945;42.648;23.370;2023-08-07T09:24:40;5.60;;;1.60;;
24873;SDS011;12945;42.648;23.370;2023-08-07T09:30:06;2.22;;;1.30;;
24873;SDS011;12945;42.648;23.370;2023-08-07T09:35:03;1.65;;;1.20;;
24873;SDS011;12945;42.648;23.370;2023-08-07T09:37:43;9.85;;;2.70;;
24873;SDS011;12945;42.648;23.370;2023-08-07T09:40:08;1.50;;;1.35;;
24873;SDS011;12945;42.648;23.370;2023-08-07T09:45:32;2.78;;;1.55;;
24873;SDS011;12945;42.648;23.370;2023-08-07T09:50:46;3.95;;;1.65;;
24873;SDS011;12945;42.648;23.370;2023-08-07T09:56:14;3.85;;;1.52;;
24873;SDS011;12945;42.648;23.370;2023-08-07T09:58:43;2.58;;;1.52;;
24873;SDS011;12945;42.648;23.370;2023-08-07T10:01:08;3.55;;;1.80;;
24873;SDS011;12945;42.648;23.370;2023-08-07T10:03:35;2.83;;;1.42;;
24873;SDS011;12945;42.648;23.370;2023-08-07T10:06:01;3.50;;;1.70;;
24873;SDS011;12945;42.648;23.370;2023-08-07T10:08:30;2.40;;;1.60;;
24873;SDS011;12945;42.648;23.370;2023-08-07T10:10:57;3.28;;;1.50;;
24873;SDS011;12945;42.648;23.370;2023-08-07T10:16:26;5.53;;;1.85;;
24873;SDS011;12945;42.648;23.370;2023-08-07T10:24:23;1.80;;;1.40;;
24873;SDS011;12945;42.648;23.370;2023-08-07T10:26:50;3.90;;;1.80;;
24873;SDS011;12945;42.648;23.370;2023-08-07T10:29:17;3.35;;;1.60;;
24873;SDS011;12945;42.648;23.370;2023-08-07T10:34:17;3.35;;;1.60;;
24873;SDS011;12945;42.648;23.370;2023-08-07T10:36:45;5.50;;;1.50;;
24873;SDS011;12945;42.648;23.370;2023-08-07T10:39:11;5.95;;;1.95;;
24873;SDS011;12945;42.648;23.370;2023-08-07T10:41:52;2.15;;;1.50;;
24873;SDS011;12945;42.648;23.370;2023-08-07T10:44:22;1.45;;;1.20;;
24873;SDS011;12945;42.648;23.370;2023-08-07T10:46:55;3.92;;;1.50;;
24873;SDS011;12945;42.648;23.370;2023-08-07T10:49:36;1.50;;;1.40;;
24873;SDS011;12945;42.648;23.370;2023-08-07T10:52:13;4.00;;;1.40;;
24873;SDS011;12945;42.648;23.370;2023-08-07T10:54:46;2.20;;;1.40;;
24873;SDS011;12945;42.648;23.370;2023-08-07T10:57:19;4.43;;;1.55;;
24873;SDS011;12945;42.648;23.370;2023-08-07T10:59:48;4.70;;;1.50;;
24873;SDS011;12945;42.648;23.370;2023-08-07T11:02:24;1.95;;;1.40;;
24873;SDS011;12945;42.648;23.370;2023-08-07T11:04:53;1.90;;;1.48;;
24873;SDS011;12945;42.648;23.370;2023-08-07T11:10:01;5.22;;;1.80;;
24873;SDS011;12945;42.648;23.370;2023-08-07T11:12:29;2.58;;;1.27;;
24873;SDS011;12945;42.648;23.370;2023-08-07T11:14:55;3.08;;;1.67;;
24873;SDS011;12945;42.648;23.370;2023-08-07T11:17:29;4.75;;;1.73;;
24873;SDS011;12945;42.648;23.370;2023-08-07T11:19:57;2.72;;;1.20;;
24873;SDS011;12945;42.648;23.370;2023-08-07T11:22:23;2.40;;;1.30;;
24873;SDS011;12945;42.648;23.370;2023-08-07T11:24:49;3.45;;;1.52;;
24873;SDS011;12945;42.648;23.370;2023-08-07T11:27:14;4.85;;;2.20;;
24873;SDS011;12945;42.648;23.370;2023-08-07T11:29:40;3.60;;;1.80;;
24873;SDS011;12945;42.648;23.370;2023-08-07T11:32:20;3.80;;;1.60;;
24873;SDS011;12945;42.648;23.370;2023-08-07T11:34:49;4.15;;;1.33;;
24873;SDS011;12945;42.648;23.370;2023-08-07T11:37:16;3.17;;;1.50;;
24873;SDS011;12945;42.648;23.370;2023-08-07T11:39:42;5.28;;;1.50;;
24873;SDS011;12945;42.648;23.370;2023-08-07T11:42:20;2.17;;;1.55;;
24873;SDS011;12945;42.648;23.370;2023-08-07T11:44:46;4.18;;;3.63;;
24873;SDS011;12945;42.648;23.370;2023-08-07T11:47:12;2.33;;;1.80;;
24873;SDS011;12945;42.648;23.370;2023-08-07T11:49:37;5.75;;;1.48;;
24873;SDS011;12945;42.648;23.370;2023-08-07T11:52:05;9.23;;;1.38;;
24873;SDS011;12945;42.648;23.370;2023-08-07T11:54:30;2.63;;;1.40;;
24873;SDS011;12945;42.648;23.370;2023-08-07T11:56:56;3.05;;;1.50;;
24873;SDS011;12945;42.648;23.370;2023-08-07T11:59:23;2.25;;;1.45;;
24873;SDS011;12945;42.648;23.370;2023-08-07T12:01:49;2.10;;;1.48;;
24873;SDS011;12945;42.648;23.370;2023-08-07T12:04:14;2.33;;;1.45;;
24873;SDS011;12945;42.648;23.370;2023-08-07T12:06:54;4.13;;;1.50;;
24873;SDS011;12945;42.648;23.370;2023-08-07T12:11:57;6.50;;;1.88;;
24873;SDS011;12945;42.648;23.370;2023-08-07T12:14:38;2.85;;;1.33;;
24873;SDS011;12945;42.648;23.370;2023-08-07T12:17:03;3.40;;;1.60;;
24873;SDS011;12945;42.648;23.370;2023-08-07T12:19:35;3.45;;;1.50;;
24873;SDS011;12945;42.648;23.370;2023-08-07T12:22:02;7.85;;;1.60;;
24873;SDS011;12945;42.648;23.370;2023-08-07T12:24:35;1.80;;;1.30;;
24873;SDS011;12945;42.648;23.370;2023-08-07T12:27:02;1.67;;;1.30;;
24873;SDS011;12945;42.648;23.370;2023-08-07T12:29:34;1.95;;;1.40;;
24873;SDS011;12945;42.648;23.370;2023-08-07T12:32:00;1.63;;;1.30;;
24873;SDS011;12945;42.648;23.370;2023-08-07T12:34:42;4.30;;;1.63;;
24873;SDS011;12945;42.648;23.370;2023-08-07T12:37:08;1.83;;;1.30;;
24873;SDS011;12945;42.648;23.370;2023-08-07T12:39:34;2.95;;;1.50;;
24873;SDS011;12945;42.648;23.370;2023-08-07T12:41:59;2.95;;;1.55;;
24873;SDS011;12945;42.648;23.370;2023-08-07T12:44:38;4.22;;;1.60;;
24873;SDS011;12945;42.648;23.370;2023-08-07T12:47:04;3.73;;;1.67;;
24873;SDS011;12945;42.648;23.370;2023-08-07T12:49:30;2.25;;;1.40;;
24873;SDS011;12945;42.648;23.370;2023-08-07T12:51:55;3.80;;;1.50;;
24873;SDS011;12945;42.648;23.370;2023-08-07T12:54:38;2.58;;;1.38;;
24873;SDS011;12945;42.648;23.370;2023-08-07T12:57:03;3.70;;;1.40;;
24873;SDS011;12945;42.648;23.370;2023-08-07T12:59:30;2.63;;;1.50;;
24873;SDS011;12945;42.648;23.370;2023-08-07T13:01:55;1.70;;;1.35;;
24873;SDS011;12945;42.648;23.370;2023-08-07T13:04:27;3.00;;;1.88;;
24873;SDS011;12945;42.648;23.370;2023-08-07T13:06:52;3.08;;;1.50;;
24873;SDS011;12945;42.648;23.370;2023-08-07T13:12:04;3.38;;;1.48;;
24873;SDS011;12945;42.648;23.370;2023-08-07T13:17:04;2.65;;;1.65;;
24873;SDS011;12945;42.648;23.370;2023-08-07T13:19:30;3.40;;;1.80;;
24873;SDS011;12945;42.648;23.370;2023-08-07T13:21:56;2.00;;;1.50;;
24873;SDS011;12945;42.648;23.370;2023-08-07T13:24:33;3.20;;;1.52;;
24873;SDS011;12945;42.648;23.370;2023-08-07T13:26:58;2.45;;;1.75;;
24873;SDS011;12945;42.648;23.370;2023-08-07T13:29:40;7.28;;;2.10;;
24873;SDS011;12945;42.648;23.370;2023-08-07T13:32:05;5.15;;;1.90;;
24873;SDS011;12945;42.648;23.370;2023-08-07T13:34:35;7.05;;;1.73;;
24873;SDS011;12945;42.648;23.370;2023-08-07T13:37:00;3.15;;;1.70;;
24873;SDS011;12945;42.648;23.370;2023-08-07T13:39:26;3.58;;;1.70;;
24873;SDS011;12945;42.648;23.370;2023-08-07T13:41:51;9.20;;;1.80;;
24873;SDS011;12945;42.648;23.370;2023-08-07T13:46:55;2.20;;;1.63;;
24873;SDS011;12945;42.648;23.370;2023-08-07T13:52:24;3.58;;;1.75;;
24873;SDS011;12945;42.648;23.370;2023-08-07T13:54:50;3.50;;;1.60;;
24873;SDS011;12945;42.648;23.370;2023-08-07T13:57:15;2.47;;;1.48;;
24873;SDS011;12945;42.648;23.370;2023-08-07T13:59:43;1.50;;;1.40;;
24873;SDS011;12945;42.648;23.370;2023-08-07T14:02:09;2.83;;;1.60;;
24873;SDS011;12945;42.648;23.370;2023-08-07T14:04:46;5.03;;;1.58;;
24873;SDS011;12945;42.648;23.370;2023-08-07T14:07:12;4.05;;;1.88;;
24873;SDS011;12945;42.648;23.370;2023-08-07T14:12:43;2.92;;;1.45;;
24873;SDS011;12945;42.648;23.370;2023-08-07T14:15:08;3.45;;;1.60;;
24873;SDS011;12945;42.648;23.370;2023-08-07T14:17:35;2.00;;;1.50;;
24873;SDS011;12945;42.648;23.370;2023-08-07T14:20:00;4.45;;;1.63;;
24873;SDS011;12945;42.648;23.370;2023-08-07T14:22:25;3.80;;;1.98;;
24873;SDS011;12945;42.648;23.370;2023-08-07T14:24:51;2.60;;;1.57;;
24873;SDS011;12945;42.648;23.370;2023-08-07T14:27:16;2.22;;;1.85;;
24873;SDS011;12945;42.648;23.370;2023-08-07T14:29:41;4.50;;;1.73;;
24873;SDS011;12945;42.648;23.370;2023-08-07T14:32:07;1.98;;;1.75;;
24873;SDS011;12945;42.648;23.370;2023-08-07T14:34:35;2.45;;;1.58;;
24873;SDS011;12945;42.648;23.370;2023-08-07T14:37:00;2.70;;;1.80;;
24873;SDS011;12945;42.648;23.370;2023-08-07T14:39:32;2.60;;;1.80;;
24873;SDS011;12945;42.648;23.370;2023-08-07T14:41:58;2.45;;;1.50;;
24873;SDS011;12945;42.648;23.370;2023-08-07T14:44:23;2.90;;;1.80;;
24873;SDS011;12945;42.648;23.370;2023-08-07T14:46:48;4.00;;;2.05;;
24873;SDS011;12945;42.648;23.370;2023-08-07T14:49:16;2.88;;;1.85;;
24873;SDS011;12945;42.648;23.370;2023-08-07T14:51:41;3.17;;;1.77;;
24873;SDS011;12945;42.648;23.370;2023-08-07T14:54:16;3.28;;;1.55;;
24873;SDS011;12945;42.648;23.370;2023-08-07T14:56:41;1.92;;;1.50;;
24873;SDS011;12945;42.648;23.370;2023-08-07T15:01:38;2.40;;;1.65;;
24873;SDS011;12945;42.648;23.370;2023-08-07T15:06:48;2.60;;;1.73;;
24873;SDS011;12945;42.648;23.370;2023-08-07T15:12:18;4.53;;;1.95;;
24873;SDS011;12945;42.648;23.370;2023-08-07T15:17:20;2.42;;;1.65;;
24873;SDS011;12945;42.648;23.370;2023-08-07T15:22:22;2.28;;;1.80;;
24873;SDS011;12945;42.648;23.370;2023-08-07T15:27:25;4.63;;;1.92;;
24873;SDS011;12945;42.648;23.370;2023-08-07T15:29:51;3.50;;;1.60;;
24873;SDS011;12945;42.648;23.370;2023-08-07T15:32:16;3.13;;;2.00;;
24873;SDS011;12945;42.648;23.370;2023-08-07T15:34:48;5.18;;;2.20;;
24873;SDS011;12945;42.648;23.370;2023-08-07T15:37:14;2.53;;;1.67;;
24873;SDS011;12945;42.648;23.370;2023-08-07T15:42:26;4.20;;;1.83;;
24873;SDS011;12945;42.648;23.370;2023-08-07T15:47:31;7.68;;;2.20;;
24873;SDS011;12945;42.648;23.370;2023-08-07T15:49:59;3.97;;;2.00;;
24873;SDS011;12945;42.648;23.370;2023-08-07T15:52:24;2.55;;;1.95;;
24873;SDS011;12945;42.648;23.370;2023-08-07T15:54:57;2.85;;;2.00;;
24873;SDS011;12945;42.648;23.370;2023-08-07T15:57:23;4.05;;;2.33;;
24873;SDS011;12945;42.648;23.370;2023-08-07T15:59:53;5.45;;;2.00;;
24873;SDS011;12945;42.648;23.370;2023-08-07T16:02:18;4.95;;;2.03;;
24873;SDS011;12945;42.648;23.370;2023-08-07T16:07:18;4.97;;;1.95;;
24873;SDS011;12945;42.648;23.370;2023-08-07T16:12:13;3.30;;;1.55;;
24873;SDS011;12945;42.648;23.370;2023-08-07T16:14:41;8.60;;;2.00;;
24873;SDS011;12945;42.648;23.370;2023-08-07T16:17:06;2.40;;;1.70;;
24873;SDS011;12945;42.648;23.370;2023-08-07T16:19:50;3.28;;;1.90;;
24873;SDS011;12945;42.648;23.370;2023-08-07T16:22:16;3.33;;;1.90;;
24873;SDS011;12945;42.648;23.370;2023-08-07T16:24:42;6.10;;;2.00;;
24873;SDS011;12945;42.648;23.370;2023-08-07T16:27:07;7.43;;;2.25;;
24873;SDS011;12945;42.648;23.370;2023-08-07T16:29:33;2.65;;;1.80;;
24873;SDS011;12945;42.648;23.370;2023-08-07T16:31:59;7.22;;;2.03;;
24873;SDS011;12945;42.648;23.370;2023-08-07T16:37:00;3.33;;;2.20;;
24873;SDS011;12945;42.648;23.370;2023-08-07T16:39:27;4.63;;;2.22;;
24873;SDS011;12945;42.648;23.370;2023-08-07T16:41:52;5.80;;;1.90;;
24873;SDS011;12945;42.648;23.370;2023-08-07T16:44:18;4.97;;;2.20;;
24873;SDS011;12945;42.648;23.370;2023-08-07T16:46:44;3.55;;;2.25;;
24873;SDS011;12945;42.648;23.370;2023-08-07T16:49:09;6.50;;;2.20;;
24873;SDS011;12945;42.648;23.370;2023-08-07T16:51:35;3.45;;;2.20;;
24873;SDS011;12945;42.648;23.370;2023-08-07T16:54:00;6.35;;;2.55;;
24873;SDS011;12945;42.648;23.370;2023-08-07T16:56:26;5.07;;;1.90;;
24873;SDS011;12945;42.648;23.370;2023-08-07T16:58:52;3.75;;;2.20;;
24873;SDS011;12945;42.648;23.370;2023-08-07T17:01:17;3.78;;;2.03;;
24873;SDS011;12945;42.648;23.370;2023-08-07T17:06:12;5.33;;;2.30;;
24873;SDS011;12945;42.648;23.370;2023-08-07T17:08:51;5.95;;;2.00;;
24873;SDS011;12945;42.648;23.370;2023-08-07T17:11:18;6.20;;;2.30;;
24873;SDS011;12945;42.648;23.370;2023-08-07T17:13:51;3.47;;;2.28;;
24873;SDS011;12945;42.648;23.370;2023-08-07T17:16:16;8.70;;;2.50;;
24873;SDS011;12945;42.648;23.370;2023-08-07T17:21:13;3.55;;;2.20;;
24873;SDS011;12945;42.648;23.370;2023-08-07T17:23:39;2.92;;;2.20;;
24873;SDS011;12945;42.648;23.370;2023-08-07T17:26:05;4.50;;;2.53;;